Time,TemperatureF,DewpointF,PressureIn,WindDirection,WindDirectionDegrees,WindSpeedMPH,WindSpeedGustMPH,Humidity,HourlyPrecipIn,Conditions,Clouds,dailyrainin,SolarRadiationWatts/m^2,SoftwareType,DateUTC
2013-07-23 00:03:00,62.7,59.7,29.93,SE,141,0.0,0.0,90,0.00,,,0.00,0,HR-IXPWINDi_r2_v1.2.,2013-07-23 07:03:00,
2013-07-23 00:08:00,62.6,59.6,29.94,SE,141,0.0,1.0,90,0.00,,,0.00,0,HR-IXPWINDi_r2_v1.2.,2013-07-23 07:08:00,
2013-07-23 00:14:00,62.7,59.7,29.94,SE,141,0.0,1.0,90,0.00,,,0.00,0,HR-IXPWINDi_r2_v1.2.,2013-07-23 07:14:00,
2013-07-23 00:19:00,62.6,59.6,29.94,SE,141,0.0,1.0,90,0.00,,,0.00,0,HR-IXPWINDi_r2_v1.2.,2013-07-23 07:19:00,
2013-07-23 00:24:00,62.8,60.1,29.94,SE,141,1.0,2.0,91,0.00,,,0.00,0,HR-IXPWINDi_r2_v1.2.,2013-07-23 07:24:00,
2013-07-23 00:29:00,63.0,60.3,29.94,SE,141,0.0,2.0,91,0.00,,,0.00,0,HR-IXPWINDi_r2_v1.2.,2013-07-23 07:29:00,
2013-07-23 00:35:00,62.9,60.2,29.94,SE,141,0.0,2.0,91,0.00,,,0.00,0,HR-IXPWINDi_r2_v1.2.,2013-07-23 07:35:00,
2013-07-23 00:40:00,62.9,60.2,29.94,SE,141,0.0,1.0,91,0.00,,,0.00,0,HR-IXPWINDi_r2_v1.2.,2013-07-23 07:40:00,
2013-07-23 00:45:00,62.7,60.0,29.94,SE,141,0.0,1.0,91,0.00,,,0.00,0,HR-IXPWINDi_r2_v1.2.,2013-07-23 07:45:00,
2013-07-23 00:50:00,62.5,59.8,29.94,SE,141,0.0,1.0,91,0.00,,,0.00,0,HR-IXPWINDi_r2_v1.2.,2013-07-23 07:50:00,
2013-07-23 00:56:00,62.3,59.6,29.94,SE,141,0.0,1.0,91,0.00,,,0.00,0,HR-IXPWINDi_r2_v1.2.,2013-07-23 07:56:00,
2013-07-23 01:01:00,62.2,59.5,29.94,SE,141,0.0,1.0,91,0.00,,,0.00,0,HR-IXPWINDi_r2_v1.2.,2013-07-23 08:01:00,
2013-07-23 01:06:00,62.1,59.4,29.94,SE,141,0.0,1.0,91,0.00,,,0.00,0,HR-IXPWINDi_r2_v1.2.,2013-07-23 08:06:00,
2013-07-23 01:11:00,62.0,59.3,29.94,SE,141,0.0,1.0,91,0.00,,,0.00,0,HR-IXPWINDi_r2_v1.2.,2013-07-23 08:11:00,
2013-07-23 01:16:00,61.8,59.1,29.93,WNW,295,0.0,2.0,91,0.00,,,0.00,0,HR-IXPWINDi_r2_v1.2.,2013-07-23 08:16:00,
2013-07-23 01:22:00,61.8,59.4,29.93,WNW,295,0.0,2.0,92,0.00,,,0.00,0,HR-IXPWINDi_r2_v1.2.,2013-07-23 08:22:00,
2013-07-23 01:27:00,61.8,59.4,29.93,WNW,295,0.0,1.0,92,0.00,,,0.00,0,HR-IXPWINDi_r2_v1.2.,2013-07-23 08:27:00,
2013-07-23 01:32:00,61.7,59.3,29.93,WNW,295,0.0,0.0,92,0.00,,,0.00,0,HR-IXPWINDi_r2_v1.2.,2013-07-23 08:32:00,
2013-07-23 01:37:00,61.6,59.2,29.93,WNW,295,0.0,0.0,92,0.00,,,0.00,0,HR-IXPWINDi_r2_v1.2.,2013-07-23 08:37:00,
2013-07-23 01:42:00,61.5,59.1,29.93,South,182,1.0,1.0,92,0.00,,,0.00,0,HR-IXPWINDi_r2_v1.2.,2013-07-23 08:42:00,
2013-07-23 01:47:00,61.5,59.1,29.94,South,188,0.0,4.0,92,0.00,,,0.00,0,HR-IXPWINDi_r2_v1.2.,2013-07-23 08:47:00,
2013-07-23 01:52:00,61.6,59.2,29.93,South,188,0.0,4.0,92,0.00,,,0.00,0,HR-IXPWINDi_r2_v1.2.,2013-07-23 08:52:00,
2013-07-23 01:58:00,61.6,59.2,29.93,South,181,0.0,2.0,92,0.00,,,0.00,0,HR-IXPWINDi_r2_v1.2.,2013-07-23 08:58:00,
2013-07-23 02:03:00,61.5,59.1,29.93,South,181,0.0,2.0,92,0.00,,,0.00,0,HR-IXPWINDi_r2_v1.2.,2013-07-23 09:03:00,
2013-07-23 02:08:00,61.5,59.1,29.93,South,181,0.0,1.0,92,0.00,,,0.00,0,HR-IXPWINDi_r2_v1.2.,2013-07-23 09:08:00,
2013-07-23 02:13:00,61.1,58.7,29.93,South,181,0.0,0.0,92,0.00,,,0.00,0,HR-IXPWINDi_r2_v1.2.,2013-07-23 09:13:00,
2013-07-23 02:18:00,61.0,58.6,29.93,South,181,0.0,0.0,92,0.00,,,0.00,0,HR-IXPWINDi_r2_v1.2.,2013-07-23 09:18:00,
2013-07-23 02:24:00,60.9,58.5,29.93,South,181,0.0,0.0,92,0.00,,,0.00,0,HR-IXPWINDi_r2_v1.2.,2013-07-23 09:24:00,
2013-07-23 02:29:00,60.8,58.4,29.93,South,181,0.0,0.0,92,0.00,,,0.00,0,HR-IXPWINDi_r2_v1.2.,2013-07-23 09:29:00,
2013-07-23 02:34:00,60.8,58.7,29.93,South,181,0.0,0.0,93,0.00,,,0.00,0,HR-IXPWINDi_r2_v1.2.,2013-07-23 09:34:00,
2013-07-23 02:39:00,60.9,58.8,29.93,South,181,0.0,0.0,93,0.00,,,0.00,0,HR-IXPWINDi_r2_v1.2.,2013-07-23 09:39:00,
2013-07-23 02:46:00,61.2,59.1,29.93,South,181,0.0,2.0,93,0.00,,,0.00,0,HR-IXPWINDi_r2_v1.2.,2013-07-23 09:46:00,
2013-07-23 02:51:00,61.4,59.3,29.93,South,181,0.0,2.0,93,0.00,,,0.00,0,HR-IXPWINDi_r2_v1.2.,2013-07-23 09:51:00,
2013-07-23 02:56:00,61.5,59.4,29.93,South,180,2.0,4.0,93,0.00,,,0.00,0,HR-IXPWINDi_r2_v1.2.,2013-07-23 09:56:00,
2013-07-23 03:01:00,61.6,59.5,29.93,South,181,0.0,4.0,93,0.00,,,0.00,0,HR-IXPWINDi_r2_v1.2.,2013-07-23 10:01:00,
2013-07-23 03:06:00,61.6,59.5,29.93,South,181,0.0,4.0,93,0.00,,,0.00,0,HR-IXPWINDi_r2_v1.2.,2013-07-23 10:06:00,
2013-07-23 03:11:00,61.5,59.7,29.93,South,184,0.0,3.0,94,0.00,,,0.00,0,HR-IXPWINDi_r2_v1.2.,2013-07-23 10:11:00,
2013-07-23 03:16:00,61.4,59.6,29.93,South,184,1.0,2.0,94,0.00,,,0.00,0,HR-IXPWINDi_r2_v1.2.,2013-07-23 10:16:00,
2013-07-23 03:22:00,61.4,59.6,29.93,South,185,0.0,2.0,94,0.00,,,0.00,0,HR-IXPWINDi_r2_v1.2.,2013-07-23 10:22:00,
2013-07-23 03:27:00,61.5,59.7,29.93,South,185,0.0,2.0,94,0.00,,,0.00,0,HR-IXPWINDi_r2_v1.2.,2013-07-23 10:27:00,
2013-07-23 03:32:00,61.6,59.8,29.93,South,186,1.0,2.0,94,0.00,,,0.00,0,HR-IXPWINDi_r2_v1.2.,2013-07-23 10:32:00,
2013-07-23 03:38:00,61.5,59.7,29.93,South,186,0.0,2.0,94,0.00,,,0.00,0,HR-IXPWINDi_r2_v1.2.,2013-07-23 10:38:00,
2013-07-23 03:43:00,61.5,59.7,29.93,South,186,1.0,2.0,94,0.00,,,0.00,0,HR-IXPWINDi_r2_v1.2.,2013-07-23 10:43:00,
2013-07-23 03:48:00,61.4,59.6,29.93,South,185,0.0,1.0,94,0.00,,,0.00,0,HR-IXPWINDi_r2_v1.2.,2013-07-23 10:48:00,
2013-07-23 03:53:00,61.2,59.1,29.93,South,186,0.0,1.0,93,0.00,,,0.00,0,HR-IXPWINDi_r2_v1.2.,2013-07-23 10:53:00,
2013-07-23 03:58:00,61.1,59.3,29.93,South,186,0.0,0.0,94,0.00,,,0.00,0,HR-IXPWINDi_r2_v1.2.,2013-07-23 10:58:00,
2013-07-23 04:03:00,60.9,59.1,29.93,South,186,0.0,0.0,94,0.00,,,0.00,0,HR-IXPWINDi_r2_v1.2.,2013-07-23 11:03:00,
2013-07-23 04:09:00,60.9,59.1,29.93,South,186,0.0,0.0,94,0.00,,,0.00,0,HR-IXPWINDi_r2_v1.2.,2013-07-23 11:09:00,
2013-07-23 04:14:00,60.7,58.9,29.93,South,185,0.0,0.0,94,0.00,,,0.00,0,HR-IXPWINDi_r2_v1.2.,2013-07-23 11:14:00,
2013-07-23 04:19:00,60.6,58.8,29.93,South,185,0.0,0.0,94,0.00,,,0.00,0,HR-IXPWINDi_r2_v1.2.,2013-07-23 11:19:00,
2013-07-23 04:24:00,60.5,58.7,29.94,South,185,0.0,0.0,94,0.00,,,0.00,0,HR-IXPWINDi_r2_v1.2.,2013-07-23 11:24:00,
2013-07-23 04:29:00,60.5,58.7,29.93,South,186,0.0,0.0,94,0.00,,,0.00,0,HR-IXPWINDi_r2_v1.2.,2013-07-23 11:29:00,
2013-07-23 04:35:00,60.3,58.5,29.93,South,185,0.0,1.0,94,0.00,,,0.00,0,HR-IXPWINDi_r2_v1.2.,2013-07-23 11:35:00,
2013-07-23 04:40:00,60.2,58.4,29.93,South,186,0.0,1.0,94,0.00,,,0.00,0,HR-IXPWINDi_r2_v1.2.,2013-07-23 11:40:00,
2013-07-23 04:45:00,60.2,58.4,29.93,South,186,0.0,0.0,94,0.00,,,0.00,0,HR-IXPWINDi_r2_v1.2.,2013-07-23 11:45:00,
2013-07-23 04:50:00,60.3,58.5,29.93,South,186,0.0,0.0,94,0.00,,,0.00,0,HR-IXPWINDi_r2_v1.2.,2013-07-23 11:50:00,
2013-07-23 04:55:00,60.3,58.5,29.94,South,186,0.0,0.0,94,0.00,,,0.00,0,HR-IXPWINDi_r2_v1.2.,2013-07-23 11:55:00,
2013-07-23 05:01:00,60.3,58.5,29.94,South,185,0.0,0.0,94,0.00,,,0.00,0,HR-IXPWINDi_r2_v1.2.,2013-07-23 12:01:00,
2013-07-23 05:06:00,60.1,58.3,29.94,South,186,0.0,0.0,94,0.00,,,0.00,0,HR-IXPWINDi_r2_v1.2.,2013-07-23 12:06:00,
2013-07-23 05:11:00,60.2,58.4,29.94,South,186,0.0,0.0,94,0.00,,,0.00,0,HR-IXPWINDi_r2_v1.2.,2013-07-23 12:11:00,
2013-07-23 05:16:00,60.3,58.5,29.94,South,186,0.0,0.0,94,0.00,,,0.00,0,HR-IXPWINDi_r2_v1.2.,2013-07-23 12:16:00,
2013-07-23 05:22:00,60.4,58.6,29.94,South,185,0.0,0.0,94,0.00,,,0.00,0,HR-IXPWINDi_r2_v1.2.,2013-07-23 12:22:00,
2013-07-23 05:27:00,60.5,58.7,29.94,South,185,0.0,0.0,94,0.00,,,0.00,0,HR-IXPWINDi_r2_v1.2.,2013-07-23 12:27:00,
2013-07-23 05:32:00,60.5,58.7,29.94,South,186,0.0,0.0,94,0.00,,,0.00,0,HR-IXPWINDi_r2_v1.2.,2013-07-23 12:32:00,
2013-07-23 05:37:00,60.7,58.9,29.94,South,185,0.0,0.0,94,0.00,,,0.00,0,HR-IXPWINDi_r2_v1.2.,2013-07-23 12:37:00,
2013-07-23 05:42:00,60.8,59.0,29.94,South,186,0.0,0.0,94,0.00,,,0.00,0,HR-IXPWINDi_r2_v1.2.,2013-07-23 12:42:00,
2013-07-23 05:47:00,60.9,59.1,29.94,South,186,0.0,0.0,94,0.00,,,0.00,0,HR-IXPWINDi_r2_v1.2.,2013-07-23 12:47:00,
2013-07-23 05:53:00,61.1,59.3,29.95,South,186,0.0,0.0,94,0.00,,,0.00,0,HR-IXPWINDi_r2_v1.2.,2013-07-23 12:53:00,
2013-07-23 05:58:00,61.2,59.4,29.95,South,186,0.0,0.0,94,0.00,,,0.00,0,HR-IXPWINDi_r2_v1.2.,2013-07-23 12:58:00,
2013-07-23 06:03:00,61.1,59.3,29.95,South,186,0.0,0.0,94,0.00,,,0.00,0,HR-IXPWINDi_r2_v1.2.,2013-07-23 13:03:00,
2013-07-23 06:09:00,61.2,59.4,29.95,South,186,0.0,1.0,94,0.00,,,0.00,5,HR-IXPWINDi_r2_v1.2.,2013-07-23 13:09:00,
2013-07-23 06:14:00,61.2,59.4,29.95,South,186,0.0,1.0,94,0.00,,,0.00,7,HR-IXPWINDi_r2_v1.2.,2013-07-23 13:14:00,
2013-07-23 06:19:00,61.3,59.5,29.95,South,186,0.0,1.0,94,0.00,,,0.00,9,HR-IXPWINDi_r2_v1.2.,2013-07-23 13:19:00,
2013-07-23 06:24:00,61.4,59.6,29.95,South,186,0.0,2.0,94,0.00,,,0.00,11,HR-IXPWINDi_r2_v1.2.,2013-07-23 13:24:00,
2013-07-23 06:29:00,61.3,59.5,29.95,South,186,0.0,2.0,94,0.00,,,0.00,16,HR-IXPWINDi_r2_v1.2.,2013-07-23 13:29:00,
2013-07-23 06:34:00,61.4,59.6,29.96,South,186,0.0,1.0,94,0.00,,,0.00,28,HR-IXPWINDi_r2_v1.2.,2013-07-23 13:34:00,
2013-07-23 06:40:00,61.4,59.6,29.95,South,185,0.0,2.0,94,0.00,,,0.00,35,HR-IXPWINDi_r2_v1.2.,2013-07-23 13:40:00,
2013-07-23 06:45:00,61.3,59.5,29.95,South,186,0.0,2.0,94,0.00,,,0.00,40,HR-IXPWINDi_r2_v1.2.,2013-07-23 13:45:00,
2013-07-23 06:50:00,61.4,59.6,29.95,South,186,0.0,2.0,94,0.00,,,0.00,44,HR-IXPWINDi_r2_v1.2.,2013-07-23 13:50:00,
2013-07-23 06:55:00,61.2,59.4,29.95,South,186,0.0,1.0,94,0.00,,,0.00,46,HR-IXPWINDi_r2_v1.2.,2013-07-23 13:55:00,
2013-07-23 07:00:00,61.3,59.5,29.95,South,186,0.0,1.0,94,0.00,,,0.00,65,HR-IXPWINDi_r2_v1.2.,2013-07-23 14:00:00,
2013-07-23 07:05:00,61.7,59.9,29.96,South,186,1.0,3.0,94,0.00,,,0.00,67,HR-IXPWINDi_r2_v1.2.,2013-07-23 14:05:00,
2013-07-23 07:11:00,61.8,59.7,29.96,South,178,0.0,4.0,93,0.00,,,0.00,62,HR-IXPWINDi_r2_v1.2.,2013-07-23 14:11:00,
2013-07-23 07:16:00,61.9,60.1,29.96,South,178,0.0,4.0,94,0.00,,,0.00,60,HR-IXPWINDi_r2_v1.2.,2013-07-23 14:16:00,
2013-07-23 07:21:00,62.1,60.0,29.97,South,178,0.0,3.0,93,0.00,,,0.00,69,HR-IXPWINDi_r2_v1.2.,2013-07-23 14:21:00,
2013-07-23 07:26:00,62.1,60.0,29.97,SSE,162,1.0,4.0,93,0.00,,,0.00,72,HR-IXPWINDi_r2_v1.2.,2013-07-23 14:26:00,
2013-07-23 07:31:00,62.1,60.0,29.97,SSE,163,2.0,4.0,93,0.00,,,0.00,62,HR-IXPWINDi_r2_v1.2.,2013-07-23 14:31:00,
2013-07-23 07:37:00,61.9,59.8,29.97,SSE,163,1.0,3.0,93,0.00,,,0.00,76,HR-IXPWINDi_r2_v1.2.,2013-07-23 14:37:00,
2013-07-23 07:42:00,62.0,60.2,29.97,SSE,163,0.0,3.0,94,0.00,,,0.00,125,HR-IXPWINDi_r2_v1.2.,2013-07-23 14:42:00,
2013-07-23 07:47:00,62.6,60.8,29.97,SSE,163,0.0,1.0,94,0.00,,,0.00,139,HR-IXPWINDi_r2_v1.2.,2013-07-23 14:47:00,
2013-07-23 07:52:00,63.2,61.1,29.97,SSE,161,0.0,1.0,93,0.00,,,0.00,137,HR-IXPWINDi_r2_v1.2.,2013-07-23 14:52:00,
2013-07-23 07:58:00,63.6,61.2,29.97,SE,146,0.0,2.0,92,0.00,,,0.00,169,HR-IXPWINDi_r2_v1.2.,2013-07-23 14:58:00,
2013-07-23 08:03:00,63.4,60.7,29.98,South,173,2.0,4.0,91,0.00,,,0.00,125,HR-IXPWINDi_r2_v1.2.,2013-07-23 15:03:00,
2013-07-23 08:08:00,63.4,60.7,29.97,South,174,2.0,4.0,91,0.00,,,0.00,156,HR-IXPWINDi_r2_v1.2.,2013-07-23 15:08:00,
2013-07-23 08:13:00,63.9,61.5,29.98,South,185,3.0,5.0,92,0.00,,,0.00,149,HR-IXPWINDi_r2_v1.2.,2013-07-23 15:13:00,
2013-07-23 08:18:00,63.6,60.5,29.98,SSW,192,1.0,5.0,90,0.00,,,0.00,132,HR-IXPWINDi_r2_v1.2.,2013-07-23 15:18:00,
2013-07-23 08:23:00,63.4,60.3,29.98,South,188,0.0,5.0,90,0.00,,,0.00,139,HR-IXPWINDi_r2_v1.2.,2013-07-23 15:23:00,
2013-07-23 08:29:00,63.5,60.8,29.98,South,174,0.0,5.0,91,0.00,,,0.00,148,HR-IXPWINDi_r2_v1.2.,2013-07-23 15:29:00,
2013-07-23 08:34:00,64.5,61.4,29.99,South,174,1.0,4.0,90,0.00,,,0.00,132,HR-IXPWINDi_r2_v1.2.,2013-07-23 15:34:00,
2013-07-23 08:39:00,64.6,61.2,29.98,South,179,0.0,3.0,89,0.00,,,0.00,185,HR-IXPWINDi_r2_v1.2.,2013-07-23 15:39:00,
2013-07-23 08:44:00,65.0,61.6,29.98,SSE,161,0.0,4.0,89,0.00,,,0.00,304,HR-IXPWINDi_r2_v1.2.,2013-07-23 15:44:00,
2013-07-23 08:49:00,66.1,62.4,29.98,ENE,72,1.0,4.0,88,0.00,,,0.00,253,HR-IXPWINDi_r2_v1.2.,2013-07-23 15:49:00,
2013-07-23 08:55:00,66.8,62.1,29.99,South,175,2.0,4.0,85,0.00,,,0.00,396,HR-IXPWINDi_r2_v1.2.,2013-07-23 15:55:00,
2013-07-23 09:00:00,68.0,63.6,29.99,SSE,154,4.0,4.0,86,0.00,,,0.00,383,HR-IXPWINDi_r2_v1.2.,2013-07-23 16:00:00,
2013-07-23 09:05:00,67.8,62.7,29.98,South,169,2.0,6.0,84,0.00,,,0.00,404,HR-IXPWINDi_r2_v1.2.,2013-07-23 16:05:00,
2013-07-23 09:10:00,68.0,62.6,29.99,SSE,163,2.0,6.0,83,0.00,,,0.00,397,HR-IXPWINDi_r2_v1.2.,2013-07-23 16:10:00,
2013-07-23 09:15:00,68.4,63.3,29.98,SSE,167,2.0,5.0,84,0.00,,,0.00,408,HR-IXPWINDi_r2_v1.2.,2013-07-23 16:15:00,
2013-07-23 09:21:00,69.3,62.8,29.98,SSE,166,2.0,3.0,80,0.00,,,0.00,434,HR-IXPWINDi_r2_v1.2.,2013-07-23 16:21:00,
2013-07-23 09:26:00,69.0,62.9,29.98,South,182,3.0,6.0,81,0.00,,,0.00,461,HR-IXPWINDi_r2_v1.2.,2013-07-23 16:26:00,
2013-07-23 09:31:00,70.7,64.2,29.98,East,85,1.0,6.0,80,0.00,,,0.00,494,HR-IXPWINDi_r2_v1.2.,2013-07-23 16:31:00,
2013-07-23 09:36:00,72.3,64.3,29.98,East,84,0.0,4.0,76,0.00,,,0.00,529,HR-IXPWINDi_r2_v1.2.,2013-07-23 16:36:00,
2013-07-23 09:41:00,73.3,64.8,29.98,ENE,62,2.0,4.0,75,0.00,,,0.00,557,HR-IXPWINDi_r2_v1.2.,2013-07-23 16:41:00,
2013-07-23 09:47:00,74.3,64.6,29.98,SE,125,2.0,5.0,72,0.00,,,0.00,582,HR-IXPWINDi_r2_v1.2.,2013-07-23 16:47:00,
2013-07-23 09:52:00,73.0,63.4,29.98,SSW,194,2.0,5.0,72,0.00,,,0.00,606,HR-IXPWINDi_r2_v1.2.,2013-07-23 16:52:00,
2013-07-23 09:57:00,74.4,64.7,29.98,SSE,150,1.0,5.0,72,0.00,,,0.00,621,HR-IXPWINDi_r2_v1.2.,2013-07-23 16:57:00,
2013-07-23 10:02:00,74.7,65.0,29.98,SE,126,0.0,5.0,72,0.00,,,0.00,631,HR-IXPWINDi_r2_v1.2.,2013-07-23 17:02:00,
2013-07-23 10:07:00,75.9,64.5,29.98,South,181,2.0,5.0,68,0.00,,,0.00,645,HR-IXPWINDi_r2_v1.2.,2013-07-23 17:07:00,
2013-07-23 10:13:00,76.1,64.7,29.98,South,177,5.0,5.0,68,0.00,,,0.00,656,HR-IXPWINDi_r2_v1.2.,2013-07-23 17:13:00,
2013-07-23 10:18:00,76.0,65.0,29.98,South,180,2.0,5.0,69,0.00,,,0.00,670,HR-IXPWINDi_r2_v1.2.,2013-07-23 17:18:00,
2013-07-23 10:23:00,76.1,64.3,29.98,South,188,2.0,5.0,67,0.00,,,0.00,684,HR-IXPWINDi_r2_v1.2.,2013-07-23 17:23:00,
2013-07-23 10:29:00,76.1,64.7,29.98,SSE,165,0.0,5.0,68,0.00,,,0.00,693,HR-IXPWINDi_r2_v1.2.,2013-07-23 17:29:00,
2013-07-23 10:34:00,77.8,65.5,29.98,ENE,69,0.0,5.0,66,0.00,,,0.00,701,HR-IXPWINDi_r2_v1.2.,2013-07-23 17:34:00,
2013-07-23 10:39:00,76.9,64.2,29.98,SSW,194,4.0,4.0,65,0.00,,,0.00,708,HR-IXPWINDi_r2_v1.2.,2013-07-23 17:39:00,
2013-07-23 10:44:00,76.4,64.6,29.98,SSE,151,2.0,7.0,67,0.00,,,0.00,717,HR-IXPWINDi_r2_v1.2.,2013-07-23 17:44:00,
2013-07-23 10:49:00,78.1,65.3,29.97,East,80,1.0,7.0,65,0.00,,,0.00,724,HR-IXPWINDi_r2_v1.2.,2013-07-23 17:49:00,
2013-07-23 10:54:00,80.0,64.3,29.97,SW,219,2.0,7.0,59,0.00,,,0.00,737,HR-IXPWINDi_r2_v1.2.,2013-07-23 17:54:00,
2013-07-23 11:00:00,79.9,64.7,29.97,South,190,1.0,7.0,60,0.00,,,0.00,749,HR-IXPWINDi_r2_v1.2.,2013-07-23 18:00:00,
2013-07-23 11:05:00,80.1,64.9,29.97,South,188,1.0,6.0,60,0.00,,,0.00,761,HR-IXPWINDi_r2_v1.2.,2013-07-23 18:05:00,
2013-07-23 11:10:00,81.3,64.6,29.97,SE,146,3.0,8.0,57,0.00,,,0.00,773,HR-IXPWINDi_r2_v1.2.,2013-07-23 18:10:00,
2013-07-23 11:15:00,80.8,64.6,29.97,SE,140,2.0,8.0,58,0.00,,,0.00,788,HR-IXPWINDi_r2_v1.2.,2013-07-23 18:15:00,
2013-07-23 11:20:00,81.3,65.1,29.97,SE,136,2.0,7.0,58,0.00,,,0.00,793,HR-IXPWINDi_r2_v1.2.,2013-07-23 18:20:00,
2013-07-23 11:25:00,82.0,65.2,29.97,South,169,7.0,7.0,57,0.00,,,0.00,802,HR-IXPWINDi_r2_v1.2.,2013-07-23 18:25:00,
2013-07-23 11:30:00,81.2,64.5,29.97,SSE,167,5.0,7.0,57,0.00,,,0.00,809,HR-IXPWINDi_r2_v1.2.,2013-07-23 18:30:00,
2013-07-23 11:36:00,82.3,63.9,29.97,South,186,2.0,7.0,54,0.00,,,0.00,819,HR-IXPWINDi_r2_v1.2.,2013-07-23 18:36:00,
2013-07-23 11:41:00,81.6,63.3,29.97,SSW,204,1.0,8.0,54,0.00,,,0.00,823,HR-IXPWINDi_r2_v1.2.,2013-07-23 18:41:00,
2013-07-23 11:46:00,81.7,64.4,29.97,South,179,3.0,8.0,56,0.00,,,0.00,830,HR-IXPWINDi_r2_v1.2.,2013-07-23 18:46:00,
2013-07-23 11:51:00,79.8,63.2,29.96,South,179,3.0,7.0,57,0.00,,,0.00,833,HR-IXPWINDi_r2_v1.2.,2013-07-23 18:51:00,
2013-07-23 11:56:00,81.1,64.9,29.96,South,188,4.0,6.0,58,0.00,,,0.00,840,HR-IXPWINDi_r2_v1.2.,2013-07-23 18:56:00,
2013-07-23 12:01:00,83.0,65.1,29.96,SE,142,1.0,8.0,55,0.00,,,0.00,842,HR-IXPWINDi_r2_v1.2.,2013-07-23 19:01:00,
2013-07-23 12:06:00,82.5,64.7,29.96,South,178,1.0,8.0,55,0.00,,,0.00,849,HR-IXPWINDi_r2_v1.2.,2013-07-23 19:06:00,
2013-07-23 12:12:00,81.7,63.4,29.96,SSW,192,6.0,10.0,54,0.00,,,0.00,851,HR-IXPWINDi_r2_v1.2.,2013-07-23 19:12:00,
2013-07-23 12:17:00,80.0,63.4,29.96,South,179,6.0,10.0,57,0.00,,,0.00,856,HR-IXPWINDi_r2_v1.2.,2013-07-23 19:17:00,
2013-07-23 12:22:00,80.5,64.8,29.96,SSE,156,3.0,10.0,59,0.00,,,0.00,861,HR-IXPWINDi_r2_v1.2.,2013-07-23 19:22:00,
2013-07-23 12:27:00,81.8,64.5,29.96,SSW,200,7.0,9.0,56,0.00,,,0.00,863,HR-IXPWINDi_r2_v1.2.,2013-07-23 19:27:00,
2013-07-23 12:32:00,81.8,64.0,29.95,SSW,196,3.0,9.0,55,0.00,,,0.00,867,HR-IXPWINDi_r2_v1.2.,2013-07-23 19:32:00,
2013-07-23 12:38:00,81.5,62.7,29.95,South,177,3.0,9.0,53,0.00,,,0.00,868,HR-IXPWINDi_r2_v1.2.,2013-07-23 19:38:00,
2013-07-23 12:43:00,82.0,62.6,29.95,SSW,209,6.0,9.0,52,0.00,,,0.00,868,HR-IXPWINDi_r2_v1.2.,2013-07-23 19:43:00,
2013-07-23 12:48:00,80.5,62.8,29.95,West,267,4.0,8.0,55,0.00,,,0.00,865,HR-IXPWINDi_r2_v1.2.,2013-07-23 19:48:00,
2013-07-23 12:53:00,80.6,62.4,29.95,SSW,192,5.0,9.0,54,0.00,,,0.00,870,HR-IXPWINDi_r2_v1.2.,2013-07-23 19:53:00,
2013-07-23 12:59:00,79.9,62.2,29.95,South,182,8.0,11.0,55,0.00,,,0.00,868,HR-IXPWINDi_r2_v1.2.,2013-07-23 19:59:00,
2013-07-23 13:04:00,79.3,61.7,29.95,SSW,192,4.0,11.0,55,0.00,,,0.00,868,HR-IXPWINDi_r2_v1.2.,2013-07-23 20:04:00,
2013-07-23 13:09:00,79.2,61.1,29.95,SSW,199,5.0,11.0,54,0.00,,,0.00,868,HR-IXPWINDi_r2_v1.2.,2013-07-23 20:09:00,
2013-07-23 13:14:00,79.6,62.0,29.94,SSE,165,6.0,12.0,55,0.00,,,0.00,867,HR-IXPWINDi_r2_v1.2.,2013-07-23 20:14:00,
2013-07-23 13:19:00,79.5,61.9,29.94,SSE,157,4.0,12.0,55,0.00,,,0.00,868,HR-IXPWINDi_r2_v1.2.,2013-07-23 20:19:00,
2013-07-23 13:24:00,79.4,62.3,29.94,SSW,194,2.0,11.0,56,0.00,,,0.00,865,HR-IXPWINDi_r2_v1.2.,2013-07-23 20:24:00,
2013-07-23 13:29:00,80.7,61.9,29.94,SSW,192,3.0,9.0,53,0.00,,,0.00,861,HR-IXPWINDi_r2_v1.2.,2013-07-23 20:29:00,
2013-07-23 13:35:00,80.9,61.6,29.94,SSW,202,2.0,13.0,52,0.00,,,0.00,856,HR-IXPWINDi_r2_v1.2.,2013-07-23 20:35:00,
2013-07-23 13:40:00,80.3,62.6,29.94,South,190,5.0,13.0,55,0.00,,,0.00,851,HR-IXPWINDi_r2_v1.2.,2013-07-23 20:40:00,
2013-07-23 13:45:00,81.1,62.3,29.94,South,173,3.0,8.0,53,0.00,,,0.00,847,HR-IXPWINDi_r2_v1.2.,2013-07-23 20:45:00,
2013-07-23 13:50:00,80.8,62.6,29.94,South,170,1.0,8.0,54,0.00,,,0.00,847,HR-IXPWINDi_r2_v1.2.,2013-07-23 20:50:00,
2013-07-23 13:55:00,80.8,61.5,29.94,South,180,3.0,8.0,52,0.00,,,0.00,840,HR-IXPWINDi_r2_v1.2.,2013-07-23 20:55:00,
2013-07-23 14:00:00,80.6,62.4,29.94,SSW,197,4.0,10.0,54,0.00,,,0.00,838,HR-IXPWINDi_r2_v1.2.,2013-07-23 21:00:00,
2013-07-23 14:06:00,81.1,62.3,29.94,SSE,155,0.0,10.0,53,0.00,,,0.00,833,HR-IXPWINDi_r2_v1.2.,2013-07-23 21:06:00,
2013-07-23 14:11:00,80.7,61.4,29.94,SSW,193,7.0,9.0,52,0.00,,,0.00,826,HR-IXPWINDi_r2_v1.2.,2013-07-23 21:11:00,
2013-07-23 14:16:00,79.0,61.4,29.94,SW,217,5.0,9.0,55,0.00,,,0.00,821,HR-IXPWINDi_r2_v1.2.,2013-07-23 21:16:00,
2013-07-23 14:22:00,80.1,62.9,29.94,SSE,147,5.0,8.0,56,0.00,,,0.00,816,HR-IXPWINDi_r2_v1.2.,2013-07-23 21:22:00,
2013-07-23 14:27:00,79.4,60.7,29.93,South,176,9.0,9.0,53,0.00,,,0.00,810,HR-IXPWINDi_r2_v1.2.,2013-07-23 21:27:00,
2013-07-23 14:32:00,80.1,62.4,29.94,South,169,3.0,11.0,55,0.00,,,0.00,802,HR-IXPWINDi_r2_v1.2.,2013-07-23 21:32:00,
2013-07-23 14:37:00,78.9,60.8,29.93,NW,309,1.0,10.0,54,0.00,,,0.00,789,HR-IXPWINDi_r2_v1.2.,2013-07-23 21:37:00,
2013-07-23 14:42:00,77.6,60.1,29.94,SSW,208,5.0,9.0,55,0.00,,,0.00,784,HR-IXPWINDi_r2_v1.2.,2013-07-23 21:42:00,
2013-07-23 14:47:00,77.6,60.1,29.94,SW,220,4.0,9.0,55,0.00,,,0.00,779,HR-IXPWINDi_r2_v1.2.,2013-07-23 21:47:00,
2013-07-23 14:52:00,78.5,60.9,29.93,SSE,163,8.0,10.0,55,0.00,,,0.00,773,HR-IXPWINDi_r2_v1.2.,2013-07-23 21:52:00,
2013-07-23 14:57:00,78.9,61.8,29.93,South,177,11.0,11.0,56,0.00,,,0.00,761,HR-IXPWINDi_r2_v1.2.,2013-07-23 21:57:00,
2013-07-23 15:03:00,79.8,60.6,29.93,West,259,5.0,11.0,52,0.00,,,0.00,754,HR-IXPWINDi_r2_v1.2.,2013-07-23 22:03:00,
2013-07-23 15:08:00,79.6,60.9,29.93,South,175,2.0,11.0,53,0.00,,,0.00,744,HR-IXPWINDi_r2_v1.2.,2013-07-23 22:08:00,
2013-07-23 15:13:00,80.6,61.3,29.93,South,172,4.0,8.0,52,0.00,,,0.00,733,HR-IXPWINDi_r2_v1.2.,2013-07-23 22:13:00,
2013-07-23 15:19:00,81.2,60.7,29.93,South,173,0.0,8.0,50,0.00,,,0.00,728,HR-IXPWINDi_r2_v1.2.,2013-07-23 22:19:00,
2013-07-23 15:24:00,80.1,59.2,29.92,SSW,195,2.0,10.0,49,0.00,,,0.00,719,HR-IXPWINDi_r2_v1.2.,2013-07-23 22:24:00,
2013-07-23 15:29:00,80.4,60.0,29.92,East,92,6.0,10.0,50,0.00,,,0.00,705,HR-IXPWINDi_r2_v1.2.,2013-07-23 22:29:00,
2013-07-23 15:34:00,80.2,60.4,29.92,South,173,1.0,8.0,51,0.00,,,0.00,694,HR-IXPWINDi_r2_v1.2.,2013-07-23 22:34:00,
2013-07-23 15:39:00,80.3,58.8,29.92,South,186,2.0,8.0,48,0.00,,,0.00,684,HR-IXPWINDi_r2_v1.2.,2013-07-23 22:39:00,
2013-07-23 15:45:00,81.3,60.3,29.92,SSE,163,4.0,8.0,49,0.00,,,0.00,671,HR-IXPWINDi_r2_v1.2.,2013-07-23 22:45:00,
2013-07-23 15:50:00,79.6,59.3,29.92,South,177,2.0,9.0,50,0.00,,,0.00,657,HR-IXPWINDi_r2_v1.2.,2013-07-23 22:50:00,
2013-07-23 15:55:00,80.6,60.8,29.92,SSE,164,4.0,9.0,51,0.00,,,0.00,643,HR-IXPWINDi_r2_v1.2.,2013-07-23 22:55:00,
2013-07-23 16:00:00,81.0,60.0,29.92,South,182,2.0,7.0,49,0.00,,,0.00,633,HR-IXPWINDi_r2_v1.2.,2013-07-23 23:00:00,
2013-07-23 16:05:00,80.8,60.9,29.92,South,182,5.0,9.0,51,0.00,,,0.00,621,HR-IXPWINDi_r2_v1.2.,2013-07-23 23:05:00,
2013-07-23 16:10:00,80.8,60.9,29.92,ENE,57,1.0,9.0,51,0.00,,,0.00,605,HR-IXPWINDi_r2_v1.2.,2013-07-23 23:10:00,
2013-07-23 16:16:00,80.8,61.5,29.92,South,184,3.0,8.0,52,0.00,,,0.00,594,HR-IXPWINDi_r2_v1.2.,2013-07-23 23:16:00,
2013-07-23 16:21:00,80.3,61.0,29.91,SSE,167,5.0,8.0,52,0.00,,,0.00,580,HR-IXPWINDi_r2_v1.2.,2013-07-23 23:21:00,
2013-07-23 16:26:00,80.2,60.4,29.92,ESE,117,2.0,8.0,51,0.00,,,0.00,566,HR-IXPWINDi_r2_v1.2.,2013-07-23 23:26:00,
2013-07-23 16:31:00,80.8,59.8,29.91,SSE,157,3.0,7.0,49,0.00,,,0.00,552,HR-IXPWINDi_r2_v1.2.,2013-07-23 23:31:00,
2013-07-23 16:36:00,80.3,61.0,29.91,South,189,4.0,7.0,52,0.00,,,0.00,540,HR-IXPWINDi_r2_v1.2.,2013-07-23 23:36:00,
2013-07-23 16:41:00,80.3,59.4,29.91,South,173,3.0,6.0,49,0.00,,,0.00,526,HR-IXPWINDi_r2_v1.2.,2013-07-23 23:41:00,
2013-07-23 16:46:00,80.2,59.8,29.91,South,180,3.0,6.0,50,0.00,,,0.00,510,HR-IXPWINDi_r2_v1.2.,2013-07-23 23:46:00,
2013-07-23 16:52:00,79.5,60.3,29.91,South,183,2.0,8.0,52,0.00,,,0.00,494,HR-IXPWINDi_r2_v1.2.,2013-07-23 23:52:00,
2013-07-23 16:57:00,78.5,60.4,29.91,SSW,200,6.0,8.0,54,0.00,,,0.00,480,HR-IXPWINDi_r2_v1.2.,2013-07-23 23:57:00,
2013-07-23 17:02:00,77.7,61.2,29.91,SSW,196,6.0,8.0,57,0.00,,,0.00,461,HR-IXPWINDi_r2_v1.2.,2013-07-24 00:02:00,
2013-07-23 17:07:00,78.7,61.6,29.91,South,180,0.0,7.0,56,0.00,,,0.00,445,HR-IXPWINDi_r2_v1.2.,2013-07-24 00:07:00,
2013-07-23 17:12:00,76.7,60.3,29.90,SSE,165,3.0,8.0,57,0.00,,,0.00,432,HR-IXPWINDi_r2_v1.2.,2013-07-24 00:12:00,
2013-07-23 17:17:00,76.7,60.8,29.90,SSE,155,2.0,8.0,58,0.00,,,0.00,422,HR-IXPWINDi_r2_v1.2.,2013-07-24 00:17:00,
2013-07-23 17:23:00,76.3,60.4,29.90,SE,144,1.0,8.0,58,0.00,,,0.00,401,HR-IXPWINDi_r2_v1.2.,2013-07-24 00:23:00,
2013-07-23 17:28:00,75.7,60.8,29.90,SSE,159,2.0,8.0,60,0.00,,,0.00,387,HR-IXPWINDi_r2_v1.2.,2013-07-24 00:28:00,
2013-07-23 17:33:00,77.0,62.5,29.90,South,180,2.0,6.0,61,0.00,,,0.00,373,HR-IXPWINDi_r2_v1.2.,2013-07-24 00:33:00,
2013-07-23 17:39:00,76.8,60.9,29.90,SSE,165,0.0,5.0,58,0.00,,,0.00,357,HR-IXPWINDi_r2_v1.2.,2013-07-24 00:39:00,
2013-07-23 17:44:00,75.1,60.7,29.89,South,173,3.0,7.0,61,0.00,,,0.00,341,HR-IXPWINDi_r2_v1.2.,2013-07-24 00:44:00,
2013-07-23 17:49:00,74.9,60.9,29.89,SSW,208,3.0,7.0,62,0.00,,,0.00,322,HR-IXPWINDi_r2_v1.2.,2013-07-24 00:49:00,
2013-07-23 17:54:00,76.0,62.0,29.89,South,173,0.0,6.0,62,0.00,,,0.00,308,HR-IXPWINDi_r2_v1.2.,2013-07-24 00:54:00,
2013-07-23 17:59:00,75.1,61.6,29.89,South,174,3.0,8.0,63,0.00,,,0.00,292,HR-IXPWINDi_r2_v1.2.,2013-07-24 00:59:00,
2013-07-23 18:04:00,74.2,60.7,29.90,SW,232,1.0,8.0,63,0.00,,,0.00,278,HR-IXPWINDi_r2_v1.2.,2013-07-24 01:04:00,
2013-07-23 18:09:00,73.5,61.0,29.90,South,181,3.0,9.0,65,0.00,,,0.00,262,HR-IXPWINDi_r2_v1.2.,2013-07-24 01:09:00,
2013-07-23 18:14:00,73.5,60.5,29.90,South,189,1.0,9.0,64,0.00,,,0.00,244,HR-IXPWINDi_r2_v1.2.,2013-07-24 01:14:00,
2013-07-23 18:20:00,72.9,60.8,29.90,South,171,1.0,8.0,66,0.00,,,0.00,229,HR-IXPWINDi_r2_v1.2.,2013-07-24 01:20:00,
2013-07-23 18:25:00,72.5,60.4,29.90,SSW,199,2.0,8.0,66,0.00,,,0.00,213,HR-IXPWINDi_r2_v1.2.,2013-07-24 01:25:00,
2013-07-23 18:30:00,71.9,60.3,29.90,WSW,237,2.0,5.0,67,0.00,,,0.00,197,HR-IXPWINDi_r2_v1.2.,2013-07-24 01:30:00,
2013-07-23 18:35:00,71.3,60.1,29.90,South,184,1.0,6.0,68,0.00,,,0.00,37,HR-IXPWINDi_r2_v1.2.,2013-07-24 01:35:00,
2013-07-23 18:40:00,70.0,59.7,29.90,SSE,150,3.0,6.0,70,0.00,,,0.00,28,HR-IXPWINDi_r2_v1.2.,2013-07-24 01:40:00,
2013-07-23 18:45:00,69.1,59.6,29.89,South,169,2.0,6.0,72,0.00,,,0.00,26,HR-IXPWINDi_r2_v1.2.,2013-07-24 01:45:00,
2013-07-23 18:51:00,68.4,59.7,29.89,SSW,192,1.0,6.0,74,0.00,,,0.00,25,HR-IXPWINDi_r2_v1.2.,2013-07-24 01:51:00,
2013-07-23 18:56:00,68.1,59.8,29.89,SW,228,0.0,4.0,75,0.00,,,0.00,23,HR-IXPWINDi_r2_v1.2.,2013-07-24 01:56:00,
2013-07-23 19:01:00,68.1,59.8,29.89,South,191,0.0,4.0,75,0.00,,,0.00,23,HR-IXPWINDi_r2_v1.2.,2013-07-24 02:01:00,
2013-07-23 19:06:00,68.0,60.1,29.89,SSE,159,3.0,4.0,76,0.00,,,0.00,21,HR-IXPWINDi_r2_v1.2.,2013-07-24 02:06:00,
2013-07-23 19:11:00,68.1,60.2,29.89,South,180,2.0,4.0,76,0.00,,,0.00,19,HR-IXPWINDi_r2_v1.2.,2013-07-24 02:11:00,
2013-07-23 19:16:00,67.9,59.6,29.89,SSE,161,2.0,5.0,75,0.00,,,0.00,19,HR-IXPWINDi_r2_v1.2.,2013-07-24 02:16:00,
2013-07-23 19:21:00,67.7,59.8,29.89,South,173,2.0,6.0,76,0.00,,,0.00,18,HR-IXPWINDi_r2_v1.2.,2013-07-24 02:21:00,
2013-07-23 19:27:00,67.6,59.7,29.90,South,175,2.0,6.0,76,0.00,,,0.00,16,HR-IXPWINDi_r2_v1.2.,2013-07-24 02:27:00,
2013-07-23 19:32:00,67.4,59.9,29.89,South,175,0.0,5.0,77,0.00,,,0.00,14,HR-IXPWINDi_r2_v1.2.,2013-07-24 02:32:00,
2013-07-23 19:37:00,67.3,59.8,29.89,South,182,2.0,4.0,77,0.00,,,0.00,12,HR-IXPWINDi_r2_v1.2.,2013-07-24 02:37:00,
2013-07-23 19:42:00,67.1,59.6,29.90,South,188,1.0,4.0,77,0.00,,,0.00,11,HR-IXPWINDi_r2_v1.2.,2013-07-24 02:42:00,
2013-07-23 19:47:00,66.9,59.8,29.89,South,182,3.0,4.0,78,0.00,,,0.00,9,HR-IXPWINDi_r2_v1.2.,2013-07-24 02:47:00,
2013-07-23 19:53:00,66.6,59.5,29.90,South,174,0.0,4.0,78,0.00,,,0.00,7,HR-IXPWINDi_r2_v1.2.,2013-07-24 02:53:00,
2013-07-23 19:58:00,66.3,59.2,29.90,SSE,168,2.0,4.0,78,0.00,,,0.00,5,HR-IXPWINDi_r2_v1.2.,2013-07-24 02:58:00,
2013-07-23 20:03:00,65.9,59.1,29.90,SSE,163,1.0,3.0,79,0.00,,,0.00,0,HR-IXPWINDi_r2_v1.2.,2013-07-24 03:03:00,
2013-07-23 20:09:00,65.7,59.3,29.90,SSE,163,0.0,4.0,80,0.00,,,0.00,0,HR-IXPWINDi_r2_v1.2.,2013-07-24 03:09:00,
2013-07-23 20:14:00,65.5,59.1,29.90,WSW,243,0.0,4.0,80,0.00,,,0.00,0,HR-IXPWINDi_r2_v1.2.,2013-07-24 03:14:00,
2013-07-23 20:19:00,65.3,59.3,29.90,South,186,1.0,4.0,81,0.00,,,0.00,0,HR-IXPWINDi_r2_v1.2.,2013-07-24 03:19:00,
2013-07-23 20:24:00,65.1,59.1,29.90,South,186,0.0,4.0,81,0.00,,,0.00,0,HR-IXPWINDi_r2_v1.2.,2013-07-24 03:24:00,
2013-07-23 20:29:00,64.9,58.9,29.91,South,186,0.0,2.0,81,0.00,,,0.00,0,HR-IXPWINDi_r2_v1.2.,2013-07-24 03:29:00,
2013-07-23 20:34:00,64.7,59.0,29.91,South,190,0.0,2.0,82,0.00,,,0.00,0,HR-IXPWINDi_r2_v1.2.,2013-07-24 03:34:00,
2013-07-23 20:40:00,64.7,59.0,29.91,SSW,202,0.0,3.0,82,0.00,,,0.00,0,HR-IXPWINDi_r2_v1.2.,2013-07-24 03:40:00,
2013-07-23 20:45:00,64.4,58.7,29.91,WSW,257,1.0,4.0,82,0.00,,,0.00,0,HR-IXPWINDi_r2_v1.2.,2013-07-24 03:45:00,
2013-07-23 20:50:00,64.2,58.9,29.92,West,267,0.0,4.0,83,0.00,,,0.00,0,HR-IXPWINDi_r2_v1.2.,2013-07-24 03:50:00,
2013-07-23 20:55:00,63.9,58.6,29.92,South,186,3.0,5.0,83,0.00,,,0.00,0,HR-IXPWINDi_r2_v1.2.,2013-07-24 03:55:00,
2013-07-23 21:00:00,63.6,58.6,29.92,South,188,0.0,5.0,84,0.00,,,0.00,0,HR-IXPWINDi_r2_v1.2.,2013-07-24 04:00:00,
2013-07-23 21:01:00,63.6,58.6,29.92,South,188,0.0,5.0,84,0.00,,,0.00,0,HR-IXPWINDi_r2_v1.2.,2013-07-24 04:01:00,
2013-07-23 21:06:00,63.4,58.4,29.92,South,188,0.0,3.0,84,0.00,,,0.00,0,HR-IXPWINDi_r2_v1.2.,2013-07-24 04:06:00,
2013-07-23 21:11:00,63.3,58.3,29.92,South,188,0.0,2.0,84,0.00,,,0.00,0,HR-IXPWINDi_r2_v1.2.,2013-07-24 04:11:00,
2013-07-23 21:16:00,63.3,58.3,29.92,South,191,0.0,3.0,84,0.00,,,0.00,0,HR-IXPWINDi_r2_v1.2.,2013-07-24 04:16:00,
2013-07-23 21:21:00,63.2,58.5,29.92,South,191,0.0,3.0,85,0.00,,,0.00,0,HR-IXPWINDi_r2_v1.2.,2013-07-24 04:21:00,
2013-07-23 21:26:00,63.0,58.4,29.92,SSW,193,0.0,3.0,85,0.00,,,0.00,0,HR-IXPWINDi_r2_v1.2.,2013-07-24 04:26:00,
2013-07-23 21:31:00,62.9,58.3,29.92,SSW,193,0.0,3.0,85,0.00,,,0.00,0,HR-IXPWINDi_r2_v1.2.,2013-07-24 04:31:00,
2013-07-23 21:36:00,62.8,58.5,29.93,SSW,194,0.0,2.0,86,0.00,,,0.00,0,HR-IXPWINDi_r2_v1.2.,2013-07-24 04:36:00,
2013-07-23 21:42:00,62.7,58.4,29.93,SSW,194,0.0,2.0,86,0.00,,,0.00,0,HR-IXPWINDi_r2_v1.2.,2013-07-24 04:42:00,
2013-07-23 21:47:00,62.6,58.3,29.93,SSW,194,1.0,2.0,86,0.00,,,0.00,0,HR-IXPWINDi_r2_v1.2.,2013-07-24 04:47:00,
2013-07-23 21:52:00,62.5,58.5,29.93,SSW,194,0.0,1.0,87,0.00,,,0.00,0,HR-IXPWINDi_r2_v1.2.,2013-07-24 04:52:00,
2013-07-23 21:57:00,62.4,58.4,29.93,SSW,194,1.0,1.0,87,0.00,,,0.00,0,HR-IXPWINDi_r2_v1.2.,2013-07-24 04:57:00,
2013-07-23 22:03:00,62.3,58.3,29.93,SSW,194,0.0,1.0,87,0.00,,,0.00,0,HR-IXPWINDi_r2_v1.2.,2013-07-24 05:03:00,
2013-07-23 22:08:00,62.3,58.3,29.93,SSW,194,0.0,1.0,87,0.00,,,0.00,0,HR-IXPWINDi_r2_v1.2.,2013-07-24 05:08:00,
2013-07-23 22:13:00,62.2,58.2,29.93,SSW,194,0.0,1.0,87,0.00,,,0.00,0,HR-IXPWINDi_r2_v1.2.,2013-07-24 05:13:00,
2013-07-23 22:18:00,62.0,58.0,29.93,SSW,194,0.0,1.0,87,0.00,,,0.00,0,HR-IXPWINDi_r2_v1.2.,2013-07-24 05:18:00,
2013-07-23 22:24:00,61.8,57.8,29.93,SSW,194,0.0,1.0,87,0.00,,,0.00,0,HR-IXPWINDi_r2_v1.2.,2013-07-24 05:24:00,
2013-07-23 22:29:00,61.6,57.9,29.93,SSW,194,0.0,0.0,88,0.00,,,0.00,0,HR-IXPWINDi_r2_v1.2.,2013-07-24 05:29:00,
2013-07-23 22:34:00,61.4,57.7,29.93,SSW,194,0.0,0.0,88,0.00,,,0.00,0,HR-IXPWINDi_r2_v1.2.,2013-07-24 05:34:00,
2013-07-23 22:39:00,61.3,58.0,29.93,SSW,194,0.0,0.0,89,0.00,,,0.00,0,HR-IXPWINDi_r2_v1.2.,2013-07-24 05:39:00,
2013-07-23 22:45:00,61.2,57.9,29.93,SSW,194,0.0,0.0,89,0.00,,,0.00,0,HR-IXPWINDi_r2_v1.2.,2013-07-24 05:45:00,
2013-07-23 22:50:00,61.0,57.7,29.93,SSW,194,0.0,0.0,89,0.00,,,0.00,0,HR-IXPWINDi_r2_v1.2.,2013-07-24 05:50:00,
2013-07-23 22:55:00,60.8,57.5,29.93,SSW,194,0.0,0.0,89,0.00,,,0.00,0,HR-IXPWINDi_r2_v1.2.,2013-07-24 05:55:00,
2013-07-23 23:00:00,60.7,57.4,29.93,SSW,194,0.0,0.0,89,0.00,,,0.00,0,HR-IXPWINDi_r2_v1.2.,2013-07-24 06:00:00,
2013-07-23 23:05:00,60.8,57.8,29.93,SSW,194,0.0,0.0,90,0.00,,,0.00,0,HR-IXPWINDi_r2_v1.2.,2013-07-24 06:05:00,
2013-07-23 23:10:00,60.7,57.7,29.93,SSW,194,0.0,0.0,90,0.00,,,0.00,0,HR-IXPWINDi_r2_v1.2.,2013-07-24 06:10:00,
2013-07-23 23:16:00,60.5,57.5,29.93,SSW,194,0.0,0.0,90,0.00,,,0.00,0,HR-IXPWINDi_r2_v1.2.,2013-07-24 06:16:00,
2013-07-23 23:21:00,60.4,57.1,29.93,SSW,194,0.0,0.0,89,0.00,,,0.00,0,HR-IXPWINDi_r2_v1.2.,2013-07-24 06:21:00,
2013-07-23 23:26:00,60.2,56.9,29.94,SSW,194,0.0,0.0,89,0.00,,,0.00,0,HR-IXPWINDi_r2_v1.2.,2013-07-24 06:26:00,
2013-07-23 23:31:00,60.0,56.7,29.94,SSW,194,0.0,0.0,89,0.00,,,0.00,0,HR-IXPWINDi_r2_v1.2.,2013-07-24 06:31:00,
2013-07-23 23:36:00,59.8,56.8,29.94,SSW,194,0.0,0.0,90,0.00,,,0.00,0,HR-IXPWINDi_r2_v1.2.,2013-07-24 06:36:00,
2013-07-23 23:41:00,59.9,56.9,29.94,SSW,194,0.0,0.0,90,0.00,,,0.00,0,HR-IXPWINDi_r2_v1.2.,2013-07-24 06:41:00,
2013-07-23 23:47:00,59.9,56.9,29.94,SSW,194,0.0,0.0,90,0.00,,,0.00,0,HR-IXPWINDi_r2_v1.2.,2013-07-24 06:47:00,
2013-07-23 23:52:00,60.0,57.0,29.93,SSW,194,0.0,0.0,90,0.00,,,0.00,0,HR-IXPWINDi_r2_v1.2.,2013-07-24 06:52:00,
2013-07-23 23:57:00,59.7,56.7,29.93,SSW,194,0.0,0.0,90,0.00,,,0.00,0,HR-IXPWINDi_r2_v1.2.,2013-07-24 06:57:00,